createdAt,value
2022-08-07T00:02:36.574Z,16.24
2022-08-07T00:08:38.512Z,16.13
2022-08-07T00:11:13.052Z,16.11
2022-08-07T00:13:48.177Z,16.10
2022-08-07T00:16:17.688Z,16.08
2022-08-07T00:18:58.293Z,16.06
2022-08-07T00:21:55.354Z,15.91
2022-08-07T00:24:20.337Z,15.99
2022-08-07T00:27:06.505Z,15.94
2022-08-07T00:29:37.174Z,15.93
2022-08-07T00:32:06.788Z,15.87
2022-08-07T00:34:35.593Z,15.83
2022-08-07T00:37:05.096Z,15.79
2022-08-07T00:39:36.371Z,15.78
2022-08-07T00:42:16.221Z,15.74
2022-08-07T00:44:44.466Z,15.73
2022-08-07T00:47:15.795Z,15.72
2022-08-07T00:50:19.612Z,15.67
2022-08-07T00:52:51.672Z,15.67
2022-08-07T00:55:25.309Z,15.60
2022-08-07T00:58:13.989Z,15.58
2022-08-07T01:00:53.601Z,15.54
2022-08-07T01:03:25.457Z,15.52
2022-08-07T01:06:12.247Z,15.47
2022-08-07T01:08:43.090Z,15.47
2022-08-07T01:12:28.076Z,15.45
2022-08-07T01:14:16.550Z,15.43
2022-08-07T01:16:48.102Z,15.40
2022-08-07T01:19:22.087Z,15.36
2022-08-07T01:21:56.167Z,15.31
2022-08-07T01:24:35.018Z,15.32
2022-08-07T01:27:03.967Z,15.30
2022-08-07T01:29:34.258Z,15.27
2022-08-07T01:32:12.288Z,15.21
2022-08-07T01:34:47.425Z,15.14
2022-08-07T01:37:21.852Z,15.13
2022-08-07T01:39:53.151Z,15.11
2022-08-07T01:42:37.604Z,15.10
2022-08-07T01:45:10.108Z,15.07
2022-08-07T01:48:20.438Z,15.06
2022-08-07T01:50:37.829Z,15.00
2022-08-07T01:53:11.710Z,14.95
2022-08-07T01:55:56.613Z,14.89
2022-08-07T01:58:33.429Z,14.84
2022-08-07T02:01:58.798Z,14.79
2022-08-07T02:04:08.629Z,14.81
2022-08-07T02:06:44.065Z,14.74
2022-08-07T02:09:52.429Z,14.66
2022-08-07T02:12:18.176Z,14.55
2022-08-07T02:14:58.313Z,14.53
2022-08-07T02:17:37.281Z,14.47
2022-08-07T02:20:17.415Z,14.46
2022-08-07T02:22:57.626Z,14.55
2022-08-07T02:26:31.202Z,14.48
2022-08-07T02:28:25.763Z,14.46
2022-08-07T02:31:06.124Z,14.38
2022-08-07T02:34:03.294Z,14.43
2022-08-07T02:36:41.461Z,14.35
2022-08-07T02:39:43.610Z,14.30
2022-08-07T02:42:10.218Z,14.19
2022-08-07T02:44:48.274Z,14.30
2022-08-07T02:47:23.542Z,14.27
2022-08-07T02:50:00.512Z,14.25
2022-08-07T02:52:38.719Z,14.17
2022-08-07T02:55:28.653Z,14.11
2022-08-07T02:58:07.544Z,13.97
2022-08-07T03:00:47.062Z,14.08
2022-08-07T03:03:22.632Z,14.02
2022-08-07T03:05:55.453Z,14.07
2022-08-07T03:08:27.003Z,14.00
2022-08-07T03:11:02.391Z,14.00
2022-08-07T03:13:49.761Z,13.92
2022-08-07T03:16:27.670Z,13.93
2022-08-07T03:18:58.156Z,13.91
2022-08-07T03:21:27.435Z,13.92
2022-08-07T03:24:19.528Z,13.94
2022-08-07T03:26:58.276Z,13.98
2022-08-07T03:29:36.841Z,13.97
2022-08-07T03:32:12.988Z,13.91
2022-08-07T03:34:47.561Z,14.01
2022-08-07T03:37:37.477Z,13.95
2022-08-07T03:40:17.409Z,13.92
2022-08-07T03:42:46.791Z,13.91
2022-08-07T03:45:29.865Z,13.81
2022-08-07T03:48:09.993Z,13.79
2022-08-07T03:50:52.096Z,13.79
2022-08-07T03:54:00.526Z,13.80
2022-08-07T03:56:32.560Z,13.79
2022-08-07T03:59:09.243Z,13.72
2022-08-07T04:01:45.816Z,13.70
2022-08-07T04:04:18.026Z,13.78
2022-08-07T04:06:51.816Z,13.77
2022-08-07T04:09:24.402Z,13.77
2022-08-07T04:12:26.487Z,13.77
2022-08-07T04:14:49.108Z,13.74
2022-08-07T04:17:22.381Z,13.70
2022-08-07T04:19:55.153Z,13.79
2022-08-07T04:22:29.952Z,13.77
2022-08-07T04:25:08.809Z,13.74
2022-08-07T04:27:59.310Z,13.73
2022-08-07T04:30:39.473Z,13.77
2022-08-07T04:33:27.801Z,13.74
2022-08-07T04:35:57.904Z,13.72
2022-08-07T04:38:29.583Z,13.74
2022-08-07T04:40:59.909Z,13.77
2022-08-07T04:44:10.266Z,13.78
2022-08-07T04:47:04.800Z,13.78
2022-08-07T04:49:57.416Z,13.82
2022-08-07T04:52:35.310Z,13.85
2022-08-07T04:55:15.261Z,13.83
2022-08-07T04:58:33.727Z,13.91
2022-08-07T05:01:13.548Z,13.99
2022-08-07T05:04:07.951Z,14.07
2022-08-07T05:09:43.402Z,14.19
2022-08-07T05:12:27.008Z,14.26
2022-08-07T05:15:16.006Z,14.42
2022-08-07T05:18:00.857Z,14.66
2022-08-07T05:20:35.974Z,14.92
2022-08-07T05:23:15.807Z,15.53
2022-08-07T05:26:11.884Z,15.99
2022-08-07T05:28:40.458Z,16.54
2022-08-07T05:31:14.535Z,16.99
2022-08-07T05:34:00.950Z,17.22
2022-08-07T05:36:39.233Z,17.35
2022-08-07T05:40:13.759Z,17.55
2022-08-07T05:42:12.292Z,18.06
2022-08-07T05:45:04.249Z,18.29
2022-08-07T05:47:38.529Z,18.55
2022-08-07T05:50:26.039Z,18.92
2022-08-07T05:52:56.107Z,19.37
2022-08-07T05:56:01.864Z,19.35
2022-08-07T05:58:22.094Z,19.48
2022-08-07T06:01:11.561Z,19.58
2022-08-07T06:03:56.769Z,19.27
2022-08-07T06:06:29.893Z,19.95
2022-08-07T06:09:04.800Z,20.10
2022-08-07T06:11:38.392Z,20.22
2022-08-07T06:14:13.740Z,20.78
2022-08-07T06:16:56.429Z,20.86
2022-08-07T06:19:57.880Z,20.50
2022-08-07T06:22:28.203Z,20.92
2022-08-07T06:25:12.403Z,21.14
2022-08-07T06:27:44.288Z,21.31
2022-08-07T06:30:35.607Z,21.67
2022-08-07T06:33:19.915Z,21.73
2022-08-07T06:36:12.061Z,21.84
2022-08-07T06:38:58.469Z,22.68
2022-08-07T06:42:00.408Z,22.47
2022-08-07T06:44:50.918Z,22.34
2022-08-07T06:47:21.394Z,22.04
2022-08-07T06:49:58.284Z,22.38
2022-08-07T06:52:37.028Z,22.37
2022-08-07T06:55:34.102Z,22.85
2022-08-07T06:58:11.341Z,23.65
2022-08-07T07:00:53.066Z,23.25
2022-08-07T07:03:26.370Z,24.57
2022-08-07T07:06:11.280Z,24.91
2022-08-07T07:08:46.629Z,24.88
2022-08-07T07:12:08.338Z,24.49
2022-08-07T07:14:08.266Z,24.77
2022-08-07T07:16:49.522Z,25.51
2022-08-07T07:19:55.755Z,25.67
2022-08-07T07:22:36.513Z,25.92
2022-08-07T07:26:33.096Z,26.43
2022-08-07T07:28:03.258Z,26.49
2022-08-07T07:30:40.142Z,26.40
2022-08-07T07:33:14.452Z,27.57
2022-08-07T07:36:04.819Z,26.92
2022-08-07T07:38:36.112Z,26.60
2022-08-07T07:41:09.210Z,26.46
2022-08-07T07:44:13.652Z,26.90
2022-08-07T07:46:37.238Z,27.11
2022-08-07T07:50:36.370Z,28.62
2022-08-07T07:52:17.198Z,28.70
2022-08-07T07:54:50.611Z,28.91
2022-08-07T07:57:43.926Z,29.40
2022-08-07T08:00:29.201Z,30.01
2022-08-07T08:03:06.905Z,29.88
2022-08-07T08:05:54.749Z,29.12
2022-08-07T08:08:34.528Z,29.79
2022-08-07T08:11:08.197Z,29.96
2022-08-07T08:13:52.910Z,28.89
2022-08-07T08:16:24.963Z,29.59
2022-08-07T08:18:57.578Z,29.54
2022-08-07T08:21:55.800Z,30.18
2022-08-07T08:25:04.552Z,29.94
2022-08-07T08:27:56.475Z,30.96
2022-08-07T08:30:32.163Z,31.51
2022-08-07T08:33:15.042Z,30.95
2022-08-07T08:35:50.660Z,31.04
2022-08-07T08:38:29.965Z,30.42
2022-08-07T08:41:09.233Z,31.66
2022-08-07T08:43:56.199Z,31.01
2022-08-07T08:46:38.372Z,31.33
2022-08-07T08:49:32.832Z,31.50
2022-08-07T08:52:14.495Z,32.10
2022-08-07T08:54:50.995Z,31.66
2022-08-07T08:57:33.914Z,31.33
2022-08-07T09:00:06.855Z,32.12
2022-08-07T09:02:46.174Z,31.81
2022-08-07T09:05:36.827Z,33.11
2022-08-07T09:08:28.085Z,32.39
2022-08-07T09:11:05.537Z,32.54
2022-08-07T09:13:51.991Z,32.96
2022-08-07T09:16:30.522Z,32.91
2022-08-07T09:19:51.533Z,31.71
2022-08-07T09:24:32.713Z,31.70
2022-08-07T09:25:24.390Z,32.89
2022-08-07T09:28:02.961Z,33.78
2022-08-07T09:30:49.703Z,32.89
2022-08-07T09:33:52.614Z,33.22
2022-08-07T09:36:35.380Z,32.54
2022-08-07T09:39:53.206Z,32.81
2022-08-07T09:42:29.298Z,33.79
2022-08-07T09:47:24.425Z,34.00
2022-08-07T09:48:19.566Z,33.59
2022-08-07T09:51:01.078Z,33.74
2022-08-07T09:53:41.353Z,34.66
2022-08-07T09:56:51.424Z,35.37
2022-08-07T10:00:01.174Z,34.35
2022-08-07T10:04:06.153Z,32.81
2022-08-07T10:06:24.552Z,33.75
2022-08-07T10:11:59.904Z,34.96
2022-08-07T10:14:00.862Z,33.16
2022-08-07T10:17:02.047Z,33.69
2022-08-07T10:19:53.903Z,34.30
2022-08-07T10:22:45.395Z,34.21
2022-08-07T10:25:47.692Z,34.87
2022-08-07T10:28:39.550Z,34.70
2022-08-07T10:31:39.033Z,35.75
2022-08-07T10:34:45.137Z,34.93
2022-08-07T10:38:00.236Z,34.66
2022-08-07T10:40:22.822Z,34.93
2022-08-07T10:43:08.184Z,35.77
2022-08-07T10:45:57.483Z,35.49
2022-08-07T10:48:48.543Z,33.51
2022-08-07T10:51:39.265Z,33.30
2022-08-07T10:54:17.355Z,32.85
2022-08-07T10:57:00.081Z,33.98
2022-08-07T10:59:47.524Z,34.24
2022-08-07T11:02:32.843Z,34.85
2022-08-07T11:05:20.317Z,34.54
2022-08-07T11:08:02.599Z,34.13
2022-08-07T11:10:41.820Z,34.53
2022-08-07T11:14:45.418Z,35.49
2022-08-07T11:16:16.401Z,34.02
2022-08-07T11:18:52.186Z,34.59
2022-08-07T11:21:32.104Z,34.92
2022-08-07T11:24:08.383Z,34.66
2022-08-07T11:26:48.107Z,34.41
2022-08-07T11:29:42.818Z,34.75
2022-08-07T11:32:25.271Z,34.17
2022-08-07T11:34:58.391Z,34.55
2022-08-07T11:37:57.284Z,34.56
2022-08-07T11:40:37.117Z,35.02
2022-08-07T11:43:15.586Z,34.03
2022-08-07T11:46:00.910Z,32.96
2022-08-07T11:49:04.392Z,32.89
2022-08-07T11:51:48.714Z,32.74
2022-08-07T11:54:53.057Z,32.42
2022-08-07T11:58:00.253Z,32.31
2022-08-07T12:00:34.014Z,33.56
2022-08-07T12:03:41.554Z,34.04
2022-08-07T12:06:51.781Z,33.16
2022-08-07T12:09:34.595Z,32.01
2022-08-07T12:12:09.144Z,31.09
2022-08-07T12:14:55.360Z,30.53
2022-08-07T12:17:39.461Z,30.16
2022-08-07T12:20:29.635Z,29.87
2022-08-07T12:24:05.687Z,29.46
2022-08-07T12:26:23.318Z,29.78
2022-08-07T12:29:05.519Z,28.76
2022-08-07T12:32:02.220Z,28.59
2022-08-07T12:34:35.393Z,28.69
2022-08-07T12:37:16.956Z,28.91
2022-08-07T12:39:59.001Z,28.51
2022-08-07T12:42:32.164Z,28.06
2022-08-07T12:45:04.354Z,27.93
2022-08-07T12:47:43.961Z,27.98
2022-08-07T12:50:39.315Z,28.19
2022-08-07T12:53:22.166Z,28.77
2022-08-07T12:56:02.546Z,28.93
2022-08-07T12:58:39.699Z,28.64
2022-08-07T13:01:19.384Z,28.62
2022-08-07T13:04:13.675Z,28.73
2022-08-07T13:07:17.928Z,28.83
2022-08-07T13:10:37.867Z,29.11
2022-08-07T13:13:47.901Z,28.51
2022-08-07T13:16:17.652Z,28.24
2022-08-07T13:18:54.852Z,27.91
2022-08-07T13:21:50.303Z,27.84
2022-08-07T13:24:25.813Z,27.79
2022-08-07T13:27:05.876Z,27.96
2022-08-07T13:29:46.973Z,27.89
2022-08-07T13:32:31.652Z,27.62
2022-08-07T13:35:08.435Z,27.80
2022-08-07T13:37:55.341Z,27.34
2022-08-07T13:40:36.761Z,27.85
2022-08-07T13:43:15.065Z,27.84
2022-08-07T13:46:11.755Z,27.81
2022-08-07T13:48:39.035Z,27.91
2022-08-07T13:51:27.139Z,27.77
2022-08-07T13:54:02.118Z,27.46
2022-08-07T13:56:35.775Z,27.48
2022-08-07T13:59:13.455Z,27.74
2022-08-07T14:02:03.956Z,27.84
2022-08-07T14:04:48.888Z,27.44
2022-08-07T14:07:25.101Z,27.77
2022-08-07T14:10:21.802Z,27.68
2022-08-07T14:12:56.079Z,27.49
2022-08-07T14:15:35.342Z,27.71
2022-08-07T14:18:23.917Z,27.81
2022-08-07T14:21:20.665Z,27.71
2022-08-07T14:24:06.725Z,27.56
2022-08-07T14:26:50.580Z,27.53
2022-08-07T14:30:07.714Z,27.53
2022-08-07T14:32:14.093Z,27.36
2022-08-07T14:34:47.162Z,27.26
2022-08-07T14:37:19.535Z,27.32
2022-08-07T14:40:17.800Z,27.20
2022-08-07T14:43:54.962Z,27.40
2022-08-07T14:45:50.588Z,27.43
2022-08-07T14:48:27.872Z,27.32
2022-08-07T14:51:15.649Z,27.39
2022-08-07T14:56:42.599Z,27.25
2022-08-07T15:00:03.207Z,27.25
2022-08-07T15:02:34.124Z,27.25
2022-08-07T15:05:04.005Z,27.17
2022-08-07T15:14:34.251Z,26.97
2022-08-07T15:17:32.450Z,26.93
2022-08-07T15:20:31.900Z,27.16
2022-08-07T15:22:59.500Z,27.14
2022-08-07T15:25:51.491Z,27.01
2022-08-07T15:28:34.697Z,27.05
2022-08-07T15:31:07.358Z,26.94
2022-08-07T15:33:39.404Z,26.90
2022-08-07T15:36:12.630Z,26.82
2022-08-07T15:38:59.390Z,26.86
2022-08-07T15:42:42.320Z,26.79
2022-08-07T15:44:24.171Z,26.78
2022-08-07T15:46:58.651Z,26.69
2022-08-07T15:50:03.964Z,26.78
2022-08-07T15:52:30.448Z,26.80
2022-08-07T15:55:04.452Z,26.74
2022-08-07T15:57:48.400Z,26.80
2022-08-07T16:00:33.405Z,27.01
2022-08-07T16:03:08.489Z,27.08
2022-08-07T16:05:52.142Z,27.12
2022-08-07T16:08:32.438Z,27.01
2022-08-07T16:11:26.844Z,26.97
2022-08-07T16:14:19.154Z,27.10
2022-08-07T16:17:15.228Z,27.13
2022-08-07T16:20:34.161Z,27.03
2022-08-07T16:23:54.719Z,26.93
2022-08-07T16:26:58.847Z,26.99
2022-08-07T16:30:10.357Z,26.89
2022-08-07T16:32:46.564Z,26.97
2022-08-07T16:35:56.698Z,26.85
2022-08-07T16:39:00.566Z,26.75
2022-08-07T16:41:58.263Z,26.82
2022-08-07T16:45:14.648Z,26.83
2022-08-07T16:48:17.036Z,26.81
2022-08-07T16:51:51.754Z,26.72
2022-08-07T16:54:33.112Z,26.58
2022-08-07T16:57:15.418Z,26.54
2022-08-07T16:59:51.781Z,26.46
2022-08-07T17:02:53.004Z,26.29
2022-08-07T17:06:26.544Z,26.34
2022-08-07T17:09:08.573Z,26.31
2022-08-07T17:12:04.874Z,26.12
2022-08-07T17:14:36.115Z,26.09
2022-08-07T17:17:15.224Z,26.03
2022-08-07T17:20:02.655Z,26.00
2022-08-07T17:22:46.680Z,25.98
2022-08-07T17:25:19.422Z,25.92
2022-08-07T17:27:59.785Z,25.82
2022-08-07T17:30:36.573Z,25.78
2022-08-07T17:34:10.311Z,25.69
2022-08-07T17:36:21.281Z,25.61
2022-08-07T17:39:10.463Z,25.57
2022-08-07T17:42:03.415Z,25.53
2022-08-07T17:44:49.955Z,25.51
2022-08-07T17:47:38.486Z,25.42
2022-08-07T17:50:19.288Z,25.39
2022-08-07T17:52:53.534Z,25.35
2022-08-07T17:56:00.902Z,25.34
2022-08-07T17:58:30.694Z,25.26
2022-08-07T18:01:20.942Z,25.21
2022-08-07T18:04:16.051Z,25.07
2022-08-07T18:07:19.221Z,25.06
2022-08-07T18:10:04.326Z,24.99
2022-08-07T18:12:49.448Z,24.89
2022-08-07T18:15:24.322Z,24.91
2022-08-07T18:18:46.422Z,24.85
2022-08-07T18:21:27.453Z,24.78
2022-08-07T18:24:07.320Z,24.73
2022-08-07T18:26:59.283Z,24.66
2022-08-07T18:30:06.736Z,24.55
2022-08-07T18:33:17.106Z,24.41
2022-08-07T18:35:55.814Z,24.37
2022-08-07T18:38:57.834Z,24.26
2022-08-07T18:41:44.832Z,24.14
2022-08-07T18:44:32.572Z,24.09
2022-08-07T18:47:21.192Z,24.05
2022-08-07T18:50:31.746Z,24.00
2022-08-07T18:53:14.671Z,23.82
2022-08-07T18:55:57.684Z,23.72
2022-08-07T18:58:51.855Z,23.63
2022-08-07T19:02:31.780Z,23.56
2022-08-07T19:04:57.790Z,23.50
2022-08-07T19:07:35.028Z,23.34
2022-08-07T19:10:18.224Z,23.25
2022-08-07T19:13:10.240Z,23.04
2022-08-07T19:16:04.612Z,22.89
2022-08-07T19:18:46.483Z,22.93
2022-08-07T19:21:43.932Z,22.85
2022-08-07T19:24:31.043Z,22.70
2022-08-07T19:28:57.030Z,22.55
2022-08-07T19:31:03.258Z,22.53
2022-08-07T19:32:51.277Z,22.39
2022-08-07T19:35:24.522Z,22.34
2022-08-07T19:38:04.558Z,22.36
2022-08-07T19:40:49.280Z,22.23
2022-08-07T19:43:50.029Z,22.08
2022-08-07T19:46:17.842Z,22.01
2022-08-07T19:48:54.063Z,22.05
2022-08-07T19:51:52.782Z,21.99
2022-08-07T19:54:44.031Z,21.86
2022-08-07T19:58:00.140Z,21.83
2022-08-07T20:00:03.532Z,21.80
2022-08-07T20:02:52.152Z,21.75
2022-08-07T20:05:28.682Z,21.82
2022-08-07T20:08:00.595Z,21.80
2022-08-07T20:12:43.001Z,21.76
2022-08-07T20:15:22.090Z,21.75
2022-08-07T20:18:01.808Z,21.68
2022-08-07T20:20:35.936Z,21.70
2022-08-07T20:23:23.434Z,21.77
2022-08-07T20:26:09.972Z,21.75
2022-08-07T20:28:42.586Z,21.68
2022-08-07T20:31:21.474Z,21.63
2022-08-07T20:33:56.386Z,21.61
2022-08-07T20:36:28.342Z,21.49
2022-08-07T20:39:00.404Z,21.64
2022-08-07T20:41:38.435Z,21.65
2022-08-07T20:44:13.019Z,21.54
2022-08-07T20:46:44.845Z,21.46
2022-08-07T20:49:58.181Z,21.44
2022-08-07T20:52:13.799Z,21.38
2022-08-07T20:54:53.056Z,21.27
2022-08-07T20:57:25.779Z,21.05
2022-08-07T21:00:07.581Z,20.96
2022-08-07T21:03:04.556Z,20.89
2022-08-07T21:05:52.837Z,20.68
2022-08-07T21:08:34.989Z,20.65
2022-08-07T21:11:11.951Z,20.55
2022-08-07T21:14:20.243Z,20.38
2022-08-07T21:16:56.559Z,20.29
2022-08-07T21:19:32.552Z,20.28
2022-08-07T21:22:19.988Z,20.08
2022-08-07T21:25:04.829Z,20.16
2022-08-07T21:27:53.769Z,20.08
2022-08-07T21:30:30.540Z,20.00
2022-08-07T21:33:12.969Z,20.03
2022-08-07T21:36:05.133Z,19.93
2022-08-07T21:38:44.600Z,19.90
2022-08-07T21:41:20.689Z,19.95
2022-08-07T21:43:56.044Z,19.89
2022-08-07T21:46:33.223Z,19.85
2022-08-07T21:49:15.071Z,19.77
2022-08-07T21:51:58.863Z,19.68
2022-08-07T21:54:48.206Z,19.70
2022-08-07T21:57:44.590Z,19.62
2022-08-07T22:00:22.905Z,19.59
2022-08-07T22:03:03.640Z,19.50
2022-08-07T22:05:48.115Z,19.42
2022-08-07T22:08:20.976Z,19.38
2022-08-07T22:10:55.297Z,19.29
2022-08-07T22:13:50.532Z,19.42
2022-08-07T22:16:42.361Z,19.35
2022-08-07T22:19:18.180Z,19.25
2022-08-07T22:22:04.911Z,19.25
2022-08-07T22:24:55.554Z,19.23
2022-08-07T22:28:03.197Z,19.18
2022-08-07T22:30:22.003Z,19.21
2022-08-07T22:33:03.769Z,19.18
2022-08-07T22:35:41.362Z,19.09
2022-08-07T22:38:26.084Z,19.06
2022-08-07T22:41:02.839Z,19.01
2022-08-07T22:43:39.759Z,18.98
2022-08-07T22:47:02.244Z,18.93
2022-08-07T22:49:54.238Z,18.88
2022-08-07T22:52:51.340Z,18.80
2022-08-07T22:55:34.234Z,18.72
2022-08-07T22:58:38.174Z,18.75
2022-08-07T23:01:26.987Z,18.73
2022-08-07T23:04:30.668Z,18.75
2022-08-07T23:07:30.156Z,18.83
2022-08-07T23:10:36.450Z,18.85
2022-08-07T23:13:29.369Z,18.78
2022-08-07T23:16:48.267Z,18.76
2022-08-07T23:19:16.456Z,18.70
2022-08-07T23:21:57.338Z,18.71
2022-08-07T23:24:43.639Z,18.75
2022-08-07T23:27:34.504Z,18.65
2022-08-07T23:30:39.126Z,18.64
2022-08-07T23:34:34.063Z,18.59
2022-08-07T23:36:08.686Z,18.61
2022-08-07T23:38:57.495Z,18.50
2022-08-07T23:42:01.417Z,18.47
2022-08-07T23:44:45.405Z,18.38
2022-08-07T23:47:46.794Z,18.36
2022-08-07T23:50:36.682Z,18.33
2022-08-07T23:53:51.477Z,18.31
2022-08-07T23:56:31.149Z,18.14
